sensor_id;sensor_type;location;lat;lon;timestamp;P1;durP1;ratioP1;P2;durP2;ratioP2
24439;SDS011;12618;54.386;18.394;2023-10-09T00:00:37;6.10;;;3.00;;
24439;SDS011;12618;54.386;18.394;2023-10-09T00:03:11;8.10;;;3.90;;
24439;SDS011;12618;54.386;18.394;2023-10-09T00:05:44;6.60;;;3.50;;
24439;SDS011;12618;54.386;18.394;2023-10-09T00:08:16;5.20;;;3.10;;
24439;SDS011;12618;54.386;18.394;2023-10-09T00:10:51;6.10;;;3.60;;
24439;SDS011;12618;54.386;18.394;2023-10-09T00:13:26;6.40;;;4.50;;
24439;SDS011;12618;54.386;18.394;2023-10-09T00:16:05;4.40;;;3.00;;
24439;SDS011;12618;54.386;18.394;2023-10-09T00:18:46;4.90;;;2.80;;
24439;SDS011;12618;54.386;18.394;2023-10-09T00:21:18;6.00;;;2.80;;
24439;SDS011;12618;54.386;18.394;2023-10-09T00:23:54;5.10;;;2.60;;
24439;SDS011;12618;54.386;18.394;2023-10-09T00:26:30;6.30;;;2.60;;
24439;SDS011;12618;54.386;18.394;2023-10-09T00:29:14;4.60;;;2.40;;
24439;SDS011;12618;54.386;18.394;2023-10-09T00:31:59;5.60;;;2.70;;
24439;SDS011;12618;54.386;18.394;2023-10-09T00:34:57;4.80;;;2.40;;
24439;SDS011;12618;54.386;18.394;2023-10-09T00:40:05;4.10;;;2.40;;
24439;SDS011;12618;54.386;18.394;2023-10-09T00:42:51;6.60;;;2.70;;
24439;SDS011;12618;54.386;18.394;2023-10-09T00:45:27;5.60;;;3.00;;
24439;SDS011;12618;54.386;18.394;2023-10-09T00:47:59;4.30;;;2.50;;
24439;SDS011;12618;54.386;18.394;2023-10-09T00:50:34;5.20;;;2.60;;
24439;SDS011;12618;54.386;18.394;2023-10-09T00:53:07;3.20;;;2.20;;
24439;SDS011;12618;54.386;18.394;2023-10-09T00:55:44;3.40;;;2.10;;
24439;SDS011;12618;54.386;18.394;2023-10-09T00:58:22;3.40;;;2.20;;
24439;SDS011;12618;54.386;18.394;2023-10-09T01:00:57;4.50;;;2.20;;
24439;SDS011;12618;54.386;18.394;2023-10-09T01:03:30;5.20;;;2.40;;
24439;SDS011;12618;54.386;18.394;2023-10-09T01:06:05;3.30;;;2.20;;
24439;SDS011;12618;54.386;18.394;2023-10-09T01:08:40;4.50;;;2.50;;
24439;SDS011;12618;54.386;18.394;2023-10-09T01:11:14;4.90;;;2.30;;
24439;SDS011;12618;54.386;18.394;2023-10-09T01:13:50;4.50;;;2.40;;
24439;SDS011;12618;54.386;18.394;2023-10-09T01:16:23;4.20;;;2.50;;
24439;SDS011;12618;54.386;18.394;2023-10-09T01:18:55;4.70;;;2.80;;
24439;SDS011;12618;54.386;18.394;2023-10-09T01:21:30;4.10;;;2.50;;
24439;SDS011;12618;54.386;18.394;2023-10-09T01:24:03;4.40;;;2.30;;
24439;SDS011;12618;54.386;18.394;2023-10-09T01:26:42;4.00;;;2.60;;
24439;SDS011;12618;54.386;18.394;2023-10-09T01:29:21;3.80;;;2.50;;
24439;SDS011;12618;54.386;18.394;2023-10-09T01:31:59;7.70;;;3.00;;
24439;SDS011;12618;54.386;18.394;2023-10-09T01:34:34;5.10;;;2.40;;
24439;SDS011;12618;54.386;18.394;2023-10-09T01:42:24;4.10;;;2.20;;
24439;SDS011;12618;54.386;18.394;2023-10-09T01:45:06;3.90;;;2.30;;
24439;SDS011;12618;54.386;18.394;2023-10-09T01:47:47;5.10;;;2.30;;
24439;SDS011;12618;54.386;18.394;2023-10-09T01:50:28;3.90;;;2.20;;
24439;SDS011;12618;54.386;18.394;2023-10-09T01:53:03;5.90;;;2.20;;
24439;SDS011;12618;54.386;18.394;2023-10-09T01:55:37;3.70;;;2.10;;
24439;SDS011;12618;54.386;18.394;2023-10-09T01:58:12;5.80;;;2.20;;
24439;SDS011;12618;54.386;18.394;2023-10-09T02:00:53;4.10;;;2.20;;
24439;SDS011;12618;54.386;18.394;2023-10-09T02:03:28;3.30;;;2.20;;
24439;SDS011;12618;54.386;18.394;2023-10-09T02:06:01;3.70;;;2.00;;
24439;SDS011;12618;54.386;18.394;2023-10-09T02:08:36;4.10;;;1.80;;
24439;SDS011;12618;54.386;18.394;2023-10-09T02:11:08;2.60;;;1.70;;
24439;SDS011;12618;54.386;18.394;2023-10-09T02:13:45;4.00;;;1.70;;
24439;SDS011;12618;54.386;18.394;2023-10-09T02:16:25;4.90;;;2.00;;
24439;SDS011;12618;54.386;18.394;2023-10-09T02:19:00;4.20;;;1.80;;
24439;SDS011;12618;54.386;18.394;2023-10-09T02:21:38;5.60;;;2.10;;
24439;SDS011;12618;54.386;18.394;2023-10-09T02:24:13;5.40;;;1.70;;
24439;SDS011;12618;54.386;18.394;2023-10-09T02:26:58;4.60;;;1.90;;
24439;SDS011;12618;54.386;18.394;2023-10-09T02:29:29;6.30;;;1.80;;
24439;SDS011;12618;54.386;18.394;2023-10-09T02:32:06;3.60;;;1.80;;
24439;SDS011;12618;54.386;18.394;2023-10-09T02:34:57;4.70;;;1.90;;
24439;SDS011;12618;54.386;18.394;2023-10-09T02:37:40;4.50;;;2.10;;
24439;SDS011;12618;54.386;18.394;2023-10-09T02:40:12;3.10;;;1.90;;
24439;SDS011;12618;54.386;18.394;2023-10-09T02:42:54;4.60;;;2.00;;
24439;SDS011;12618;54.386;18.394;2023-10-09T02:45:26;3.70;;;2.00;;
24439;SDS011;12618;54.386;18.394;2023-10-09T02:48:04;4.20;;;1.90;;
24439;SDS011;12618;54.386;18.394;2023-10-09T02:50:42;3.90;;;2.00;;
24439;SDS011;12618;54.386;18.394;2023-10-09T02:55:51;4.50;;;2.10;;
24439;SDS011;12618;54.386;18.394;2023-10-09T02:58:43;3.00;;;1.90;;
24439;SDS011;12618;54.386;18.394;2023-10-09T03:01:15;3.30;;;1.90;;
24439;SDS011;12618;54.386;18.394;2023-10-09T03:03:47;4.10;;;2.30;;
24439;SDS011;12618;54.386;18.394;2023-10-09T03:06:19;4.30;;;2.20;;
24439;SDS011;12618;54.386;18.394;2023-10-09T03:08:57;3.60;;;2.20;;
24439;SDS011;12618;54.386;18.394;2023-10-09T03:11:28;3.00;;;1.90;;
24439;SDS011;12618;54.386;18.394;2023-10-09T03:14:03;4.50;;;2.20;;
24439;SDS011;12618;54.386;18.394;2023-10-09T03:16:37;6.70;;;2.20;;
24439;SDS011;12618;54.386;18.394;2023-10-09T03:19:09;4.10;;;2.20;;
24439;SDS011;12618;54.386;18.394;2023-10-09T03:21:42;3.60;;;2.10;;
24439;SDS011;12618;54.386;18.394;2023-10-09T03:24:14;3.70;;;2.00;;
24439;SDS011;12618;54.386;18.394;2023-10-09T03:29:19;2.40;;;1.60;;
24439;SDS011;12618;54.386;18.394;2023-10-09T03:31:51;3.40;;;1.90;;
24439;SDS011;12618;54.386;18.394;2023-10-09T03:34:23;4.90;;;2.20;;
24439;SDS011;12618;54.386;18.394;2023-10-09T03:36:57;4.10;;;1.80;;
24439;SDS011;12618;54.386;18.394;2023-10-09T03:39:35;4.00;;;1.70;;
24439;SDS011;12618;54.386;18.394;2023-10-09T03:42:07;4.50;;;1.60;;
24439;SDS011;12618;54.386;18.394;2023-10-09T03:44:50;3.10;;;1.80;;
24439;SDS011;12618;54.386;18.394;2023-10-09T03:47:25;2.70;;;1.60;;
24439;SDS011;12618;54.386;18.394;2023-10-09T03:52:36;4.70;;;1.70;;
24439;SDS011;12618;54.386;18.394;2023-10-09T03:55:17;3.90;;;2.20;;
24439;SDS011;12618;54.386;18.394;2023-10-09T03:57:48;3.40;;;2.00;;
24439;SDS011;12618;54.386;18.394;2023-10-09T04:00:21;6.20;;;1.90;;
24439;SDS011;12618;54.386;18.394;2023-10-09T04:02:59;2.60;;;1.50;;
24439;SDS011;12618;54.386;18.394;2023-10-09T04:05:31;4.70;;;1.90;;
24439;SDS011;12618;54.386;18.394;2023-10-09T04:08:03;5.20;;;2.10;;
24439;SDS011;12618;54.386;18.394;2023-10-09T04:10:43;4.90;;;1.80;;
24439;SDS011;12618;54.386;18.394;2023-10-09T04:13:26;4.50;;;1.80;;
24439;SDS011;12618;54.386;18.394;2023-10-09T04:16:05;4.20;;;1.90;;
24439;SDS011;12618;54.386;18.394;2023-10-09T04:19:02;3.80;;;1.90;;
24439;SDS011;12618;54.386;18.394;2023-10-09T04:21:43;3.20;;;1.90;;
24439;SDS011;12618;54.386;18.394;2023-10-09T04:24:14;4.40;;;2.20;;
24439;SDS011;12618;54.386;18.394;2023-10-09T04:26:46;2.90;;;1.90;;
24439;SDS011;12618;54.386;18.394;2023-10-09T04:29:18;5.80;;;1.80;;
24439;SDS011;12618;54.386;18.394;2023-10-09T04:31:58;6.80;;;2.30;;
24439;SDS011;12618;54.386;18.394;2023-10-09T04:34:32;3.90;;;2.00;;
24439;SDS011;12618;54.386;18.394;2023-10-09T04:37:06;3.80;;;2.00;;
24439;SDS011;12618;54.386;18.394;2023-10-09T04:39:57;4.20;;;2.70;;
24439;SDS011;12618;54.386;18.394;2023-10-09T04:42:46;5.80;;;2.30;;
24439;SDS011;12618;54.386;18.394;2023-10-09T04:45:29;6.00;;;2.20;;
24439;SDS011;12618;54.386;18.394;2023-10-09T04:48:20;6.80;;;2.70;;
24439;SDS011;12618;54.386;18.394;2023-10-09T04:51:17;5.60;;;2.20;;
24439;SDS011;12618;54.386;18.394;2023-10-09T04:53:52;3.80;;;2.10;;
24439;SDS011;12618;54.386;18.394;2023-10-09T04:56:43;7.20;;;1.90;;
24439;SDS011;12618;54.386;18.394;2023-10-09T04:59:23;6.20;;;2.10;;
24439;SDS011;12618;54.386;18.394;2023-10-09T05:04:31;11.50;;;2.10;;
24439;SDS011;12618;54.386;18.394;2023-10-09T05:07:09;6.10;;;2.00;;
24439;SDS011;12618;54.386;18.394;2023-10-09T05:09:57;3.80;;;1.90;;
24439;SDS011;12618;54.386;18.394;2023-10-09T05:12:48;4.20;;;2.20;;
24439;SDS011;12618;54.386;18.394;2023-10-09T05:15:30;3.10;;;2.20;;
24439;SDS011;12618;54.386;18.394;2023-10-09T05:18:06;5.90;;;2.30;;
24439;SDS011;12618;54.386;18.394;2023-10-09T05:20:41;6.20;;;2.50;;
24439;SDS011;12618;54.386;18.394;2023-10-09T05:23:42;6.30;;;2.80;;
24439;SDS011;12618;54.386;18.394;2023-10-09T05:26:46;11.90;;;6.30;;
24439;SDS011;12618;54.386;18.394;2023-10-09T05:29:21;9.00;;;5.20;;
24439;SDS011;12618;54.386;18.394;2023-10-09T05:32:04;7.40;;;4.30;;
24439;SDS011;12618;54.386;18.394;2023-10-09T05:34:45;6.70;;;4.50;;
24439;SDS011;12618;54.386;18.394;2023-10-09T05:37:33;19.00;;;10.70;;
24439;SDS011;12618;54.386;18.394;2023-10-09T05:40:06;21.20;;;13.20;;
24439;SDS011;12618;54.386;18.394;2023-10-09T05:42:48;19.40;;;13.00;;
24439;SDS011;12618;54.386;18.394;2023-10-09T05:45:31;15.50;;;9.40;;
24439;SDS011;12618;54.386;18.394;2023-10-09T05:48:22;10.90;;;7.00;;
24439;SDS011;12618;54.386;18.394;2023-10-09T05:50:54;9.80;;;5.60;;
24439;SDS011;12618;54.386;18.394;2023-10-09T05:53:41;11.20;;;5.40;;
24439;SDS011;12618;54.386;18.394;2023-10-09T05:56:15;10.10;;;5.30;;
24439;SDS011;12618;54.386;18.394;2023-10-09T05:59:06;12.10;;;6.40;;
24439;SDS011;12618;54.386;18.394;2023-10-09T06:01:37;9.40;;;4.30;;
24439;SDS011;12618;54.386;18.394;2023-10-09T06:04:28;8.80;;;3.60;;
24439;SDS011;12618;54.386;18.394;2023-10-09T06:07:19;6.20;;;3.60;;
24439;SDS011;12618;54.386;18.394;2023-10-09T06:09:55;7.40;;;4.00;;
24439;SDS011;12618;54.386;18.394;2023-10-09T06:12:29;7.60;;;3.90;;
24439;SDS011;12618;54.386;18.394;2023-10-09T06:15:04;6.30;;;3.60;;
24439;SDS011;12618;54.386;18.394;2023-10-09T06:18:11;7.40;;;3.90;;
24439;SDS011;12618;54.386;18.394;2023-10-09T06:21:04;9.00;;;3.50;;
24439;SDS011;12618;54.386;18.394;2023-10-09T06:23:36;7.00;;;3.10;;
24439;SDS011;12618;54.386;18.394;2023-10-09T06:26:27;7.20;;;2.90;;
24439;SDS011;12618;54.386;18.394;2023-10-09T06:29:04;9.20;;;3.30;;
24439;SDS011;12618;54.386;18.394;2023-10-09T06:31:45;5.40;;;3.30;;
24439;SDS011;12618;54.386;18.394;2023-10-09T06:34:30;6.80;;;4.30;;
24439;SDS011;12618;54.386;18.394;2023-10-09T06:37:07;6.30;;;3.30;;
24439;SDS011;12618;54.386;18.394;2023-10-09T06:39:57;6.10;;;3.30;;
24439;SDS011;12618;54.386;18.394;2023-10-09T06:42:29;7.60;;;3.40;;
24439;SDS011;12618;54.386;18.394;2023-10-09T06:45:11;6.90;;;3.40;;
24439;SDS011;12618;54.386;18.394;2023-10-09T06:47:46;7.90;;;3.30;;
24439;SDS011;12618;54.386;18.394;2023-10-09T06:50:39;6.00;;;3.00;;
24439;SDS011;12618;54.386;18.394;2023-10-09T06:53:30;4.00;;;2.90;;
24439;SDS011;12618;54.386;18.394;2023-10-09T06:59:03;6.90;;;3.60;;
24439;SDS011;12618;54.386;18.394;2023-10-09T07:01:48;6.10;;;3.00;;
24439;SDS011;12618;54.386;18.394;2023-10-09T07:11:46;10.10;;;3.50;;
24439;SDS011;12618;54.386;18.394;2023-10-09T07:14:21;6.80;;;3.70;;
24439;SDS011;12618;54.386;18.394;2023-10-09T07:17:05;6.40;;;3.30;;
24439;SDS011;12618;54.386;18.394;2023-10-09T07:19:48;4.80;;;3.20;;
24439;SDS011;12618;54.386;18.394;2023-10-09T07:22:21;6.90;;;3.50;;
24439;SDS011;12618;54.386;18.394;2023-10-09T07:24:53;5.40;;;3.20;;
24439;SDS011;12618;54.386;18.394;2023-10-09T07:27:30;5.70;;;3.10;;
24439;SDS011;12618;54.386;18.394;2023-10-09T07:30:21;7.00;;;3.00;;
24439;SDS011;12618;54.386;18.394;2023-10-09T07:33:04;9.00;;;3.70;;
24439;SDS011;12618;54.386;18.394;2023-10-09T07:35:44;5.60;;;3.40;;
24439;SDS011;12618;54.386;18.394;2023-10-09T07:38:20;8.50;;;3.70;;
24439;SDS011;12618;54.386;18.394;2023-10-09T07:41:06;9.40;;;3.30;;
24439;SDS011;12618;54.386;18.394;2023-10-09T07:43:38;6.40;;;3.00;;
24439;SDS011;12618;54.386;18.394;2023-10-09T07:46:12;7.30;;;3.40;;
24439;SDS011;12618;54.386;18.394;2023-10-09T07:49:05;9.00;;;3.50;;
24439;SDS011;12618;54.386;18.394;2023-10-09T07:51:40;5.70;;;2.80;;
24439;SDS011;12618;54.386;18.394;2023-10-09T07:54:16;6.90;;;3.00;;
24439;SDS011;12618;54.386;18.394;2023-10-09T07:57:04;7.90;;;3.20;;
24439;SDS011;12618;54.386;18.394;2023-10-09T07:59:47;6.30;;;2.80;;
24439;SDS011;12618;54.386;18.394;2023-10-09T08:02:44;7.00;;;3.10;;
24439;SDS011;12618;54.386;18.394;2023-10-09T08:05:16;6.10;;;2.90;;
24439;SDS011;12618;54.386;18.394;2023-10-09T08:07:51;6.80;;;3.40;;
24439;SDS011;12618;54.386;18.394;2023-10-09T08:11:09;7.50;;;3.00;;
24439;SDS011;12618;54.386;18.394;2023-10-09T08:14:00;6.70;;;3.30;;
24439;SDS011;12618;54.386;18.394;2023-10-09T08:16:35;6.30;;;3.10;;
24439;SDS011;12618;54.386;18.394;2023-10-09T08:19:10;5.20;;;3.20;;
24439;SDS011;12618;54.386;18.394;2023-10-09T08:22:01;5.40;;;3.20;;
24439;SDS011;12618;54.386;18.394;2023-10-09T08:24:58;5.10;;;3.00;;
24439;SDS011;12618;54.386;18.394;2023-10-09T08:27:31;7.20;;;3.50;;
24439;SDS011;12618;54.386;18.394;2023-10-09T08:30:04;4.90;;;2.90;;
24439;SDS011;12618;54.386;18.394;2023-10-09T08:32:50;6.70;;;2.80;;
24439;SDS011;12618;54.386;18.394;2023-10-09T08:35:39;7.80;;;3.10;;
24439;SDS011;12618;54.386;18.394;2023-10-09T08:38:20;6.50;;;3.30;;
24439;SDS011;12618;54.386;18.394;2023-10-09T08:40:55;8.80;;;3.60;;
24439;SDS011;12618;54.386;18.394;2023-10-09T08:43:30;6.90;;;2.40;;
24439;SDS011;12618;54.386;18.394;2023-10-09T08:46:08;6.50;;;2.80;;
24439;SDS011;12618;54.386;18.394;2023-10-09T08:48:40;4.20;;;2.10;;
24439;SDS011;12618;54.386;18.394;2023-10-09T08:51:12;3.40;;;2.00;;
24439;SDS011;12618;54.386;18.394;2023-10-09T08:53:48;4.70;;;2.60;;
24439;SDS011;12618;54.386;18.394;2023-10-09T08:56:21;3.80;;;2.40;;
24439;SDS011;12618;54.386;18.394;2023-10-09T08:58:55;4.90;;;2.20;;
24439;SDS011;12618;54.386;18.394;2023-10-09T09:01:29;6.40;;;2.50;;
24439;SDS011;12618;54.386;18.394;2023-10-09T09:04:04;4.20;;;2.50;;
24439;SDS011;12618;54.386;18.394;2023-10-09T09:06:38;4.90;;;2.80;;
24439;SDS011;12618;54.386;18.394;2023-10-09T09:09:12;3.10;;;2.00;;
24439;SDS011;12618;54.386;18.394;2023-10-09T09:11:46;5.70;;;2.30;;
24439;SDS011;12618;54.386;18.394;2023-10-09T09:14:21;4.80;;;2.80;;
24439;SDS011;12618;54.386;18.394;2023-10-09T09:17:08;5.70;;;2.70;;
24439;SDS011;12618;54.386;18.394;2023-10-09T09:19:43;4.90;;;2.80;;
24439;SDS011;12618;54.386;18.394;2023-10-09T09:22:20;4.80;;;2.50;;
24439;SDS011;12618;54.386;18.394;2023-10-09T09:24:59;15.10;;;2.90;;
24439;SDS011;12618;54.386;18.394;2023-10-09T09:27:44;3.80;;;2.30;;
24439;SDS011;12618;54.386;18.394;2023-10-09T09:30:27;3.30;;;1.70;;
24439;SDS011;12618;54.386;18.394;2023-10-09T09:33:21;4.30;;;2.00;;
24439;SDS011;12618;54.386;18.394;2023-10-09T09:36:14;3.50;;;1.80;;
24439;SDS011;12618;54.386;18.394;2023-10-09T09:38:46;2.20;;;1.40;;
24439;SDS011;12618;54.386;18.394;2023-10-09T09:41:22;3.40;;;1.60;;
24439;SDS011;12618;54.386;18.394;2023-10-09T09:43:57;5.70;;;2.20;;
24439;SDS011;12618;54.386;18.394;2023-10-09T09:46:37;2.80;;;1.90;;
24439;SDS011;12618;54.386;18.394;2023-10-09T09:49:11;3.30;;;2.00;;
24439;SDS011;12618;54.386;18.394;2023-10-09T09:51:53;3.80;;;2.00;;
24439;SDS011;12618;54.386;18.394;2023-10-09T09:54:25;3.90;;;2.20;;
24439;SDS011;12618;54.386;18.394;2023-10-09T09:56:59;4.00;;;1.50;;
24439;SDS011;12618;54.386;18.394;2023-10-09T09:59:40;3.10;;;1.80;;
24439;SDS011;12618;54.386;18.394;2023-10-09T10:02:30;3.10;;;1.70;;
24439;SDS011;12618;54.386;18.394;2023-10-09T10:05:07;3.40;;;1.50;;
24439;SDS011;12618;54.386;18.394;2023-10-09T10:07:43;2.70;;;1.40;;
24439;SDS011;12618;54.386;18.394;2023-10-09T10:10:35;2.60;;;1.60;;
24439;SDS011;12618;54.386;18.394;2023-10-09T10:13:10;2.50;;;1.50;;
24439;SDS011;12618;54.386;18.394;2023-10-09T10:18:32;10.60;;;1.60;;
24439;SDS011;12618;54.386;18.394;2023-10-09T10:21:15;2.10;;;1.30;;
24439;SDS011;12618;54.386;18.394;2023-10-09T10:24:04;4.60;;;2.10;;
24439;SDS011;12618;54.386;18.394;2023-10-09T10:27:24;3.10;;;1.50;;
24439;SDS011;12618;54.386;18.394;2023-10-09T10:35:24;2.10;;;1.10;;
24439;SDS011;12618;54.386;18.394;2023-10-09T10:38:32;1.10;;;0.80;;
24439;SDS011;12618;54.386;18.394;2023-10-09T10:41:11;3.20;;;1.30;;
24439;SDS011;12618;54.386;18.394;2023-10-09T10:43:48;2.40;;;1.20;;
24439;SDS011;12618;54.386;18.394;2023-10-09T10:46:23;2.90;;;1.20;;
24439;SDS011;12618;54.386;18.394;2023-10-09T10:48:59;5.30;;;1.30;;
24439;SDS011;12618;54.386;18.394;2023-10-09T10:51:35;2.20;;;1.30;;
24439;SDS011;12618;54.386;18.394;2023-10-09T10:54:09;1.90;;;1.20;;
24439;SDS011;12618;54.386;18.394;2023-10-09T10:57:18;2.90;;;1.00;;
24439;SDS011;12618;54.386;18.394;2023-10-09T11:00:22;2.50;;;1.10;;
24439;SDS011;12618;54.386;18.394;2023-10-09T11:03:21;2.20;;;0.90;;
24439;SDS011;12618;54.386;18.394;2023-10-09T11:06:13;3.00;;;1.00;;
24439;SDS011;12618;54.386;18.394;2023-10-09T11:08:49;2.90;;;0.90;;
24439;SDS011;12618;54.386;18.394;2023-10-09T11:11:28;2.20;;;1.30;;
24439;SDS011;12618;54.386;18.394;2023-10-09T11:14:08;5.50;;;3.50;;
24439;SDS011;12618;54.386;18.394;2023-10-09T11:16:46;3.40;;;2.10;;
24439;SDS011;12618;54.386;18.394;2023-10-09T11:19:21;2.60;;;1.40;;
24439;SDS011;12618;54.386;18.394;2023-10-09T11:22:01;3.50;;;1.40;;
24439;SDS011;12618;54.386;18.394;2023-10-09T11:24:39;8.70;;;4.00;;
24439;SDS011;12618;54.386;18.394;2023-10-09T11:27:15;5.90;;;4.40;;
24439;SDS011;12618;54.386;18.394;2023-10-09T11:29:52;3.90;;;1.40;;
24439;SDS011;12618;54.386;18.394;2023-10-09T11:32:24;1.80;;;1.10;;
24439;SDS011;12618;54.386;18.394;2023-10-09T11:35:11;3.10;;;1.20;;
24439;SDS011;12618;54.386;18.394;2023-10-09T11:38:00;3.00;;;1.70;;
24439;SDS011;12618;54.386;18.394;2023-10-09T11:40:32;1.90;;;1.00;;
24439;SDS011;12618;54.386;18.394;2023-10-09T11:43:25;2.40;;;0.70;;
24439;SDS011;12618;54.386;18.394;2023-10-09T11:46:16;1.90;;;0.70;;
24439;SDS011;12618;54.386;18.394;2023-10-09T11:49:08;2.50;;;1.40;;
24439;SDS011;12618;54.386;18.394;2023-10-09T11:51:47;1.80;;;0.90;;
24439;SDS011;12618;54.386;18.394;2023-10-09T11:54:40;2.50;;;1.50;;
24439;SDS011;12618;54.386;18.394;2023-10-09T11:57:15;2.30;;;0.90;;
24439;SDS011;12618;54.386;18.394;2023-10-09T11:59:48;1.70;;;0.90;;
24439;SDS011;12618;54.386;18.394;2023-10-09T12:02:23;2.30;;;0.90;;
24439;SDS011;12618;54.386;18.394;2023-10-09T12:04:56;2.10;;;1.00;;
24439;SDS011;12618;54.386;18.394;2023-10-09T12:07:28;1.90;;;1.00;;
24439;SDS011;12618;54.386;18.394;2023-10-09T12:10:01;2.40;;;1.00;;
24439;SDS011;12618;54.386;18.394;2023-10-09T12:12:34;2.50;;;1.40;;
24439;SDS011;12618;54.386;18.394;2023-10-09T12:15:06;5.60;;;2.80;;
24439;SDS011;12618;54.386;18.394;2023-10-09T12:17:39;3.20;;;1.90;;
24439;SDS011;12618;54.386;18.394;2023-10-09T12:20:16;2.90;;;1.10;;
24439;SDS011;12618;54.386;18.394;2023-10-09T12:23:02;2.80;;;1.60;;
24439;SDS011;12618;54.386;18.394;2023-10-09T12:25:37;1.60;;;1.10;;
24439;SDS011;12618;54.386;18.394;2023-10-09T12:28:09;2.70;;;1.00;;
24439;SDS011;12618;54.386;18.394;2023-10-09T12:30:43;1.90;;;0.80;;
24439;SDS011;12618;54.386;18.394;2023-10-09T12:33:19;8.90;;;1.90;;
24439;SDS011;12618;54.386;18.394;2023-10-09T12:46:53;1.70;;;0.90;;
24439;SDS011;12618;54.386;18.394;2023-10-09T12:49:25;3.40;;;1.30;;
24439;SDS011;12618;54.386;18.394;2023-10-09T12:51:57;2.50;;;1.60;;
24439;SDS011;12618;54.386;18.394;2023-10-09T12:54:29;5.90;;;1.90;;
24439;SDS011;12618;54.386;18.394;2023-10-09T12:57:02;3.70;;;1.10;;
24439;SDS011;12618;54.386;18.394;2023-10-09T12:59:45;2.20;;;0.80;;
24439;SDS011;12618;54.386;18.394;2023-10-09T13:02:20;4.10;;;1.00;;
24439;SDS011;12618;54.386;18.394;2023-10-09T13:05:01;3.20;;;1.10;;
24439;SDS011;12618;54.386;18.394;2023-10-09T13:07:37;2.80;;;1.00;;
24439;SDS011;12618;54.386;18.394;2023-10-09T13:10:09;2.00;;;1.10;;
24439;SDS011;12618;54.386;18.394;2023-10-09T13:12:41;5.90;;;1.20;;
24439;SDS011;12618;54.386;18.394;2023-10-09T13:15:13;5.50;;;0.90;;
24439;SDS011;12618;54.386;18.394;2023-10-09T13:17:45;2.50;;;0.90;;
24439;SDS011;12618;54.386;18.394;2023-10-09T13:20:17;18.70;;;2.60;;
24439;SDS011;12618;54.386;18.394;2023-10-09T13:22:51;3.00;;;0.90;;
24439;SDS011;12618;54.386;18.394;2023-10-09T13:25:24;2.80;;;0.90;;
24439;SDS011;12618;54.386;18.394;2023-10-09T13:28:05;4.60;;;1.30;;
24439;SDS011;12618;54.386;18.394;2023-10-09T13:30:38;0.90;;;0.70;;
24439;SDS011;12618;54.386;18.394;2023-10-09T13:33:20;2.60;;;0.90;;
24439;SDS011;12618;54.386;18.394;2023-10-09T13:35:53;2.80;;;1.40;;
24439;SDS011;12618;54.386;18.394;2023-10-09T13:38:27;2.50;;;1.00;;
24439;SDS011;12618;54.386;18.394;2023-10-09T13:40:59;2.50;;;1.30;;
24439;SDS011;12618;54.386;18.394;2023-10-09T13:43:35;2.10;;;0.90;;
24439;SDS011;12618;54.386;18.394;2023-10-09T13:46:12;2.30;;;1.00;;
24439;SDS011;12618;54.386;18.394;2023-10-09T13:48:44;6.60;;;1.30;;
24439;SDS011;12618;54.386;18.394;2023-10-09T13:51:17;2.10;;;1.10;;
24439;SDS011;12618;54.386;18.394;2023-10-09T13:53:49;3.00;;;1.20;;
24439;SDS011;12618;54.386;18.394;2023-10-09T13:56:22;1.80;;;0.80;;
24439;SDS011;12618;54.386;18.394;2023-10-09T13:58:58;3.10;;;0.90;;
24439;SDS011;12618;54.386;18.394;2023-10-09T14:01:32;5.20;;;1.40;;
24439;SDS011;12618;54.386;18.394;2023-10-09T14:04:08;3.50;;;1.90;;
24439;SDS011;12618;54.386;18.394;2023-10-09T14:06:40;4.60;;;2.90;;
24439;SDS011;12618;54.386;18.394;2023-10-09T14:09:16;4.30;;;2.00;;
24439;SDS011;12618;54.386;18.394;2023-10-09T14:12:09;2.10;;;1.20;;
24439;SDS011;12618;54.386;18.394;2023-10-09T14:14:43;1.90;;;0.90;;
24439;SDS011;12618;54.386;18.394;2023-10-09T14:17:19;3.50;;;0.90;;
24439;SDS011;12618;54.386;18.394;2023-10-09T14:19:57;1.90;;;0.80;;
24439;SDS011;12618;54.386;18.394;2023-10-09T14:22:59;2.40;;;1.10;;
24439;SDS011;12618;54.386;18.394;2023-10-09T14:25:39;3.70;;;1.30;;
24439;SDS011;12618;54.386;18.394;2023-10-09T14:28:15;3.10;;;1.50;;
24439;SDS011;12618;54.386;18.394;2023-10-09T14:30:52;4.10;;;1.40;;
24439;SDS011;12618;54.386;18.394;2023-10-09T14:33:30;2.90;;;1.60;;
24439;SDS011;12618;54.386;18.394;2023-10-09T14:36:08;3.60;;;1.20;;
24439;SDS011;12618;54.386;18.394;2023-10-09T14:38:40;3.60;;;1.20;;
24439;SDS011;12618;54.386;18.394;2023-10-09T14:41:13;3.60;;;1.10;;
24439;SDS011;12618;54.386;18.394;2023-10-09T14:43:45;5.50;;;1.50;;
24439;SDS011;12618;54.386;18.394;2023-10-09T14:46:18;5.20;;;1.60;;
24439;SDS011;12618;54.386;18.394;2023-10-09T14:48:57;4.40;;;1.40;;
24439;SDS011;12618;54.386;18.394;2023-10-09T14:51:29;4.30;;;1.20;;
24439;SDS011;12618;54.386;18.394;2023-10-09T14:54:01;2.20;;;1.30;;
24439;SDS011;12618;54.386;18.394;2023-10-09T14:56:33;14.80;;;1.90;;
24439;SDS011;12618;54.386;18.394;2023-10-09T14:59:07;4.10;;;1.80;;
24439;SDS011;12618;54.386;18.394;2023-10-09T15:01:42;5.70;;;2.50;;
24439;SDS011;12618;54.386;18.394;2023-10-09T15:04:15;4.40;;;2.20;;
24439;SDS011;12618;54.386;18.394;2023-10-09T15:08:30;5.70;;;2.40;;
24439;SDS011;12618;54.386;18.394;2023-10-09T15:11:03;5.00;;;2.40;;
24439;SDS011;12618;54.386;18.394;2023-10-09T15:13:37;5.00;;;3.10;;
24439;SDS011;12618;54.386;18.394;2023-10-09T15:23:18;7.80;;;4.80;;
24439;SDS011;12618;54.386;18.394;2023-10-09T15:25:53;10.30;;;5.40;;
24439;SDS011;12618;54.386;18.394;2023-10-09T15:28:24;15.00;;;6.50;;
24439;SDS011;12618;54.386;18.394;2023-10-09T15:31:01;32.00;;;20.80;;
24439;SDS011;12618;54.386;18.394;2023-10-09T15:33:33;34.70;;;14.20;;
24439;SDS011;12618;54.386;18.394;2023-10-09T15:36:16;16.60;;;10.60;;
24439;SDS011;12618;54.386;18.394;2023-10-09T15:38:49;21.20;;;12.90;;
24439;SDS011;12618;54.386;18.394;2023-10-09T15:41:21;21.40;;;8.80;;
24439;SDS011;12618;54.386;18.394;2023-10-09T15:43:53;9.30;;;6.60;;
24439;SDS011;12618;54.386;18.394;2023-10-09T15:46:25;10.80;;;4.40;;
24439;SDS011;12618;54.386;18.394;2023-10-09T15:49:05;25.60;;;4.90;;
24439;SDS011;12618;54.386;18.394;2023-10-09T15:51:43;15.60;;;4.40;;
24439;SDS011;12618;54.386;18.394;2023-10-09T15:54:15;10.20;;;4.60;;
24439;SDS011;12618;54.386;18.394;2023-10-09T15:56:51;9.90;;;4.30;;
24439;SDS011;12618;54.386;18.394;2023-10-09T15:59:40;25.10;;;6.90;;
24439;SDS011;12618;54.386;18.394;2023-10-09T16:02:12;16.60;;;6.20;;
24439;SDS011;12618;54.386;18.394;2023-10-09T16:04:44;17.10;;;8.50;;
24439;SDS011;12618;54.386;18.394;2023-10-09T16:07:16;18.80;;;9.00;;
24439;SDS011;12618;54.386;18.394;2023-10-09T16:09:49;18.80;;;9.30;;
24439;SDS011;12618;54.386;18.394;2023-10-09T16:12:21;18.50;;;9.50;;
24439;SDS011;12618;54.386;18.394;2023-10-09T16:14:54;23.10;;;11.50;;
24439;SDS011;12618;54.386;18.394;2023-10-09T16:17:26;25.70;;;12.70;;
24439;SDS011;12618;54.386;18.394;2023-10-09T16:19:58;26.40;;;16.90;;
24439;SDS011;12618;54.386;18.394;2023-10-09T16:22:31;32.60;;;20.00;;
24439;SDS011;12618;54.386;18.394;2023-10-09T16:25:04;42.80;;;24.40;;
24439;SDS011;12618;54.386;18.394;2023-10-09T16:27:40;30.50;;;19.50;;
24439;SDS011;12618;54.386;18.394;2023-10-09T16:30:18;48.50;;;27.20;;
24439;SDS011;12618;54.386;18.394;2023-10-09T16:32:52;106.60;;;54.30;;
24439;SDS011;12618;54.386;18.394;2023-10-09T16:35:24;105.80;;;55.80;;